createdAt,value
2022-12-25T01:05:32.236Z,8.52
2022-12-25T01:20:28.118Z,8.63
2022-12-25T01:35:24.673Z,9.06
2022-12-25T01:50:20.944Z,8.98
2022-12-25T02:05:17.528Z,9.38
2022-12-25T02:20:14.457Z,9.28
2022-12-25T02:35:11.573Z,9.19
2022-12-25T02:50:07.502Z,9.16
2022-12-25T03:05:03.253Z,9.5
2022-12-25T03:19:59.479Z,10.02
2022-12-25T03:34:55.709Z,9.98
2022-12-25T03:49:51.965Z,9.7
2022-12-25T04:04:48.231Z,9.35
2022-12-25T04:19:44.002Z,9.54
2022-12-25T04:34:40.066Z,9.4
2022-12-25T04:49:36.165Z,9.87
2022-12-25T05:04:32.578Z,10.14
2022-12-25T05:19:29.088Z,10.05
2022-12-25T06:19:13.174Z,9.61
2022-12-25T06:49:05.629Z,9.86
2022-12-25T07:18:58.119Z,9.81
2022-12-25T07:33:54.338Z,9.84
2022-12-25T07:48:50.904Z,9.81
2022-12-25T08:03:47.564Z,9.68
2022-12-25T08:18:43.801Z,9.79
2022-12-25T08:33:40.466Z,10
2022-12-25T08:48:36.513Z,10.02
2022-12-25T09:03:32.744Z,9.91
2022-12-25T09:18:28.710Z,9.95
2022-12-25T09:33:24.937Z,9.88
2022-12-25T09:48:21.165Z,9.73
2022-12-25T10:03:17.303Z,9.97
2022-12-25T10:18:13.602Z,10.35
2022-12-25T10:33:15.212Z,10.35
2022-12-25T10:48:07.577Z,10.43
2022-12-25T11:03:03.265Z,10.43
2022-12-25T11:17:59.544Z,10.95
2022-12-25T11:32:56.331Z,11.47
2022-12-25T11:47:52.372Z,11.86
2022-12-25T12:02:48.843Z,11.79
2022-12-25T12:17:44.745Z,11.95
2022-12-25T12:32:41.283Z,11.76
2022-12-25T12:47:37.823Z,11.91
2022-12-25T13:02:34.579Z,11.81
2022-12-25T13:17:30.656Z,12.07
2022-12-25T13:32:27.376Z,12.04
2022-12-25T13:47:23.506Z,12.09
2022-12-25T14:02:19.951Z,12.11
2022-12-25T14:17:16.149Z,12.46
2022-12-25T14:32:12.419Z,12.93
2022-12-25T14:47:08.524Z,12.96
2022-12-25T15:02:04.868Z,12.81
2022-12-25T15:17:01.071Z,13.1
2022-12-25T15:31:57.259Z,13.09
2022-12-25T15:46:53.181Z,13.12
2022-12-25T16:01:49.294Z,13.18
2022-12-25T16:16:45.416Z,13.1
2022-12-25T16:31:41.893Z,13.11
2022-12-25T17:01:34.581Z,13.07
2022-12-25T17:16:31.037Z,12.98
2022-12-25T17:31:26.979Z,13.01
2022-12-25T17:46:23.011Z,13.18
2022-12-25T18:16:15.813Z,13.2
2022-12-25T18:31:12.203Z,13.16
2022-12-25T18:46:08.451Z,13.03
2022-12-25T19:01:04.393Z,13
2022-12-25T19:16:00.730Z,13.2
2022-12-25T19:30:56.774Z,13.06
2022-12-25T19:45:53.397Z,12.92
2022-12-25T20:00:49.257Z,12.88
2022-12-25T20:15:46.012Z,13
2022-12-25T20:30:41.534Z,12.38
2022-12-25T20:45:38.062Z,11.76
2022-12-25T21:00:34.210Z,11.68
2022-12-25T21:30:26.360Z,11.54
2022-12-25T22:15:14.861Z,12.49
2022-12-25T22:30:11.394Z,13.29
2022-12-25T22:45:07.697Z,13.53
2022-12-25T23:00:04.258Z,13.55
2022-12-25T23:15:00.451Z,13.51
2022-12-25T23:44:52.923Z,13.5
